createdAt,value
2019-05-20T00:01:12.488Z,49.62
2019-05-20T00:03:40.463Z,49.61
2019-05-20T00:06:10.002Z,49.57
2019-05-20T00:08:38.342Z,49.61
2019-05-20T00:11:06.434Z,49.53
2019-05-20T00:13:34.454Z,49.56
2019-05-20T00:16:02.456Z,49.55
2019-05-20T00:18:30.431Z,49.52
2019-05-20T00:20:58.430Z,49.47
2019-05-20T00:23:26.485Z,49.56
2019-05-20T00:25:54.474Z,49.62
2019-05-20T00:28:22.443Z,49.63
2019-05-20T00:30:50.447Z,49.55
2019-05-20T00:33:18.419Z,49.46
2019-05-20T00:35:46.414Z,49.59
2019-05-20T00:38:14.387Z,49.66
2019-05-20T00:40:42.477Z,49.67
2019-05-20T00:43:10.527Z,49.52
2019-05-20T00:45:38.687Z,49.55
2019-05-20T00:48:06.682Z,49.61
2019-05-20T00:50:34.753Z,49.55
2019-05-20T00:53:02.718Z,49.55
2019-05-20T00:55:31.415Z,49.64
2019-05-20T00:57:59.518Z,49.76
2019-05-20T01:00:27.535Z,49.78
2019-05-20T01:02:57.179Z,49.68
2019-05-20T01:05:25.238Z,49.59
2019-05-20T01:07:53.288Z,49.55
2019-05-20T01:10:21.281Z,49.58
2019-05-20T01:12:49.248Z,49.60
2019-05-20T01:15:17.257Z,49.64
2019-05-20T01:17:45.299Z,49.70
2019-05-20T01:20:13.397Z,49.70
2019-05-20T01:22:41.447Z,49.67
2019-05-20T01:25:09.587Z,49.68
2019-05-20T01:27:37.713Z,49.59
2019-05-20T01:30:05.778Z,49.65
2019-05-20T01:32:33.862Z,49.64
2019-05-20T01:35:01.907Z,49.71
2019-05-20T01:37:29.975Z,49.78
2019-05-20T01:39:58.030Z,49.68
2019-05-20T01:42:26.039Z,49.62
2019-05-20T01:44:54.106Z,49.59
2019-05-20T01:47:22.117Z,49.61
2019-05-20T01:49:50.136Z,49.64
2019-05-20T01:52:18.172Z,49.53
2019-05-20T01:54:46.610Z,49.53
2019-05-20T01:57:14.691Z,49.51
2019-05-20T01:59:42.663Z,49.51
2019-05-20T02:02:10.836Z,49.62
2019-05-20T02:04:38.885Z,49.68
2019-05-20T02:07:07.043Z,49.65
2019-05-20T02:09:35.179Z,49.70
2019-05-20T02:12:03.265Z,49.65
2019-05-20T02:14:34.682Z,49.71
2019-05-20T02:17:02.961Z,49.79
2019-05-20T02:19:31.029Z,49.81
2019-05-20T02:21:59.095Z,49.84
2019-05-20T02:24:27.158Z,49.74
2019-05-20T02:26:55.171Z,49.67
2019-05-20T02:29:23.139Z,49.72
2019-05-20T02:31:51.223Z,49.77
2019-05-20T02:34:19.220Z,49.90
2019-05-20T02:36:47.303Z,49.88
2019-05-20T02:39:15.312Z,49.75
2019-05-20T02:41:43.317Z,49.72
2019-05-20T02:44:11.334Z,49.69
2019-05-20T02:46:39.391Z,49.81
2019-05-20T02:49:07.448Z,49.87
2019-05-20T02:51:35.465Z,49.81
2019-05-20T02:54:03.556Z,49.79
2019-05-20T02:56:31.544Z,49.86
2019-05-20T02:58:59.523Z,49.97
2019-05-20T03:01:27.675Z,49.96
2019-05-20T03:04:10.619Z,49.88
2019-05-20T03:06:25.401Z,49.90
2019-05-20T03:08:53.553Z,49.81
2019-05-20T03:11:21.560Z,49.86
2019-05-20T03:13:49.636Z,49.96
2019-05-20T03:16:17.780Z,50.03
2019-05-20T03:18:45.778Z,50.05
2019-05-20T03:21:13.843Z,50.05
2019-05-20T03:23:41.924Z,49.99
2019-05-20T03:26:09.994Z,50.00
2019-05-20T03:28:38.169Z,49.99
2019-05-20T03:31:06.166Z,50.01
2019-05-20T03:33:34.285Z,50.02
2019-05-20T03:36:02.318Z,50.00
2019-05-20T03:38:30.390Z,50.06
2019-05-20T03:40:58.357Z,50.05
2019-05-20T03:43:26.385Z,50.00
2019-05-20T03:45:54.470Z,50.03
2019-05-20T03:48:22.469Z,49.94
2019-05-20T03:50:50.524Z,49.95
2019-05-20T03:53:18.613Z,49.99
2019-05-20T03:55:46.595Z,49.91
2019-05-20T03:58:14.633Z,49.92
2019-05-20T04:00:45.836Z,49.99
2019-05-20T04:03:14.483Z,50.01
2019-05-20T04:05:42.626Z,50.03
2019-05-20T04:08:11.759Z,50.02
2019-05-20T04:10:39.797Z,50.03
2019-05-20T04:13:07.786Z,50.03
2019-05-20T04:15:35.835Z,50.05
2019-05-20T04:18:03.919Z,50.01
2019-05-20T04:20:31.965Z,49.96
2019-05-20T04:23:00.050Z,49.90
2019-05-20T04:25:28.174Z,49.98
2019-05-20T04:27:56.215Z,49.98
2019-05-20T04:30:24.194Z,50.05
2019-05-20T04:32:52.285Z,50.02
2019-05-20T04:35:22.758Z,50.04
2019-05-20T04:37:50.068Z,50.04
2019-05-20T04:40:18.217Z,50.09
2019-05-20T04:42:46.205Z,50.09
2019-05-20T04:45:14.221Z,50.07
2019-05-20T04:47:42.381Z,50.06
2019-05-20T04:50:10.439Z,50.08
2019-05-20T04:52:38.707Z,50.08
2019-05-20T04:55:06.834Z,50.11
2019-05-20T04:57:34.839Z,50.14
2019-05-20T05:00:02.843Z,50.15
2019-05-20T05:02:31.651Z,50.17
2019-05-20T05:04:59.699Z,50.15
2019-05-20T05:07:27.818Z,50.11
2019-05-20T05:09:55.948Z,50.08
2019-05-20T05:12:23.920Z,50.04
2019-05-20T05:14:51.994Z,50.04
2019-05-20T05:17:20.076Z,50.07
2019-05-20T05:19:48.143Z,50.12
2019-05-20T05:22:16.215Z,50.15
2019-05-20T05:24:44.475Z,50.17
2019-05-20T05:27:12.526Z,50.16
2019-05-20T05:29:40.611Z,50.20
2019-05-20T05:32:08.658Z,50.26
2019-05-20T05:34:36.672Z,50.24
2019-05-20T05:37:04.733Z,50.28
2019-05-20T05:39:32.883Z,50.25
2019-05-20T05:42:00.953Z,50.33
2019-05-20T05:44:28.979Z,50.33
2019-05-20T05:46:57.030Z,50.27
2019-05-20T05:49:25.187Z,50.38
2019-05-20T05:51:53.255Z,51.63
2019-05-20T05:54:21.275Z,51.43
2019-05-20T05:56:49.517Z,51.36
2019-05-20T05:59:17.540Z,51.13
2019-05-20T06:01:45.617Z,50.82
2019-05-20T06:04:13.702Z,50.65
2019-05-20T06:06:41.770Z,50.58
2019-05-20T06:09:09.777Z,50.50
2019-05-20T06:11:37.827Z,50.41
2019-05-20T06:14:05.837Z,50.31
2019-05-20T06:16:36.969Z,50.20
2019-05-20T06:19:03.592Z,50.17
2019-05-20T06:21:31.643Z,50.14
2019-05-20T06:23:59.698Z,50.01
2019-05-20T06:26:27.650Z,49.95
2019-05-20T06:28:55.732Z,50.10
2019-05-20T06:31:23.974Z,49.91
2019-05-20T06:33:52.003Z,49.91
2019-05-20T06:36:26.831Z,49.87
2019-05-20T06:39:08.817Z,49.79
2019-05-20T06:41:36.942Z,49.78
2019-05-20T06:44:05.040Z,49.82
2019-05-20T06:46:33.094Z,49.80
2019-05-20T06:49:01.135Z,49.78
2019-05-20T06:51:29.273Z,49.94
2019-05-20T06:53:57.379Z,49.81
2019-05-20T06:56:25.452Z,49.88
2019-05-20T06:58:53.522Z,49.91
2019-05-20T07:01:21.663Z,49.92
2019-05-20T07:03:49.791Z,49.86
2019-05-20T07:06:17.829Z,49.82
2019-05-20T07:08:45.798Z,49.82
2019-05-20T07:11:13.881Z,49.99
2019-05-20T07:13:41.924Z,49.96
2019-05-20T07:16:09.924Z,50.19
2019-05-20T07:18:38.631Z,50.83
2019-05-20T07:21:06.631Z,51.15
2019-05-20T07:23:34.777Z,51.67
2019-05-20T07:26:02.849Z,51.63
2019-05-20T07:28:30.838Z,51.42
2019-05-20T07:30:59.145Z,51.30
2019-05-20T07:33:27.328Z,51.28
2019-05-20T07:35:55.404Z,51.21
2019-05-20T07:38:23.519Z,51.16
2019-05-20T07:40:51.571Z,51.00
2019-05-20T07:43:19.547Z,51.01
2019-05-20T07:45:47.571Z,51.03
2019-05-20T07:48:15.650Z,50.99
2019-05-20T07:50:43.822Z,50.89
2019-05-20T07:53:11.903Z,50.86
2019-05-20T07:55:41.451Z,50.85
2019-05-20T07:58:11.578Z,50.85
2019-05-20T08:00:39.706Z,50.90
2019-05-20T08:03:07.773Z,50.90
2019-05-20T08:05:35.927Z,51.18
2019-05-20T08:08:03.985Z,54.06
2019-05-20T08:10:32.067Z,54.49
2019-05-20T08:13:00.158Z,54.39
2019-05-20T08:15:28.138Z,53.94
2019-05-20T08:17:56.309Z,53.40
2019-05-20T08:20:24.398Z,52.87
2019-05-20T08:22:52.571Z,52.76
2019-05-20T08:25:20.615Z,52.33
2019-05-20T08:27:48.684Z,52.03
2019-05-20T08:30:19.594Z,51.90
2019-05-20T08:32:47.640Z,51.94
2019-05-20T08:35:15.678Z,51.94
2019-05-20T08:37:45.630Z,51.80
2019-05-20T08:40:13.640Z,51.45
2019-05-20T08:42:41.620Z,51.26
2019-05-20T08:45:09.778Z,51.21
2019-05-20T08:47:37.783Z,51.66
2019-05-20T08:50:11.358Z,53.10
2019-05-20T08:52:36.206Z,52.78
2019-05-20T08:55:04.414Z,52.90
2019-05-20T08:57:32.413Z,52.02
2019-05-20T09:00:00.475Z,52.07
2019-05-20T09:02:28.529Z,52.38
2019-05-20T09:04:56.496Z,52.50
2019-05-20T09:07:24.582Z,52.75
2019-05-20T09:09:52.766Z,52.94
2019-05-20T09:12:20.792Z,53.01
2019-05-20T09:14:48.822Z,53.01
2019-05-20T09:17:16.832Z,52.94
2019-05-20T09:19:47.043Z,52.89
2019-05-20T09:22:14.686Z,52.82
2019-05-20T09:24:42.847Z,52.78
2019-05-20T09:27:11.017Z,52.89
2019-05-20T09:29:39.076Z,52.92
2019-05-20T09:32:14.607Z,52.88
2019-05-20T09:34:42.652Z,53.03
2019-05-20T09:37:10.868Z,53.24
2019-05-20T09:39:38.924Z,53.35
2019-05-20T09:42:07.031Z,53.58
2019-05-20T09:44:35.027Z,54.27
2019-05-20T09:47:03.031Z,54.54
2019-05-20T09:49:31.035Z,54.98
2019-05-20T09:51:59.125Z,55.39
2019-05-20T09:54:27.090Z,55.92
2019-05-20T09:56:55.098Z,56.39
2019-05-20T09:59:23.067Z,56.58
2019-05-20T10:01:51.068Z,56.60
2019-05-20T10:04:19.116Z,56.34
2019-05-20T10:06:47.123Z,55.66
2019-05-20T10:09:15.098Z,56.23
2019-05-20T10:11:43.121Z,56.22
2019-05-20T10:14:11.190Z,55.98
2019-05-20T10:16:39.212Z,56.03
2019-05-20T10:19:07.204Z,56.36
2019-05-20T10:21:35.206Z,56.27
2019-05-20T10:24:03.379Z,56.17
2019-05-20T10:26:31.451Z,55.58
2019-05-20T10:29:18.535Z,54.85
2019-05-20T10:31:46.551Z,54.35
2019-05-20T10:34:14.621Z,54.39
2019-05-20T10:36:42.683Z,54.24
2019-05-20T10:39:10.670Z,53.98
2019-05-20T10:41:38.653Z,53.73
2019-05-20T10:44:06.851Z,53.46
2019-05-20T10:46:34.822Z,53.20
2019-05-20T10:49:03.033Z,53.07
2019-05-20T10:51:31.151Z,52.85
2019-05-20T10:53:59.224Z,52.71
2019-05-20T10:56:27.207Z,52.57
2019-05-20T10:58:55.210Z,52.44
2019-05-20T11:01:23.272Z,52.33
2019-05-20T11:03:51.533Z,52.64
2019-05-20T11:06:19.532Z,52.73
2019-05-20T11:08:47.536Z,52.97
2019-05-20T11:11:15.585Z,53.01
2019-05-20T11:13:43.679Z,53.09
2019-05-20T11:16:11.660Z,53.20
2019-05-20T11:18:39.692Z,53.29
2019-05-20T11:21:07.826Z,53.56
2019-05-20T11:23:35.952Z,53.93
2019-05-20T11:26:04.008Z,53.95
2019-05-20T11:28:32.008Z,54.05
2019-05-20T11:30:59.983Z,54.19
2019-05-20T11:33:28.001Z,54.15
2019-05-20T11:35:56.046Z,54.08
2019-05-20T11:38:24.071Z,53.92
2019-05-20T11:40:52.131Z,53.78
2019-05-20T11:43:20.228Z,53.64
2019-05-20T11:45:48.298Z,53.52
2019-05-20T11:48:16.292Z,53.41
2019-05-20T11:50:44.292Z,53.30
2019-05-20T11:53:12.439Z,53.25
2019-05-20T11:55:40.407Z,53.17
2019-05-20T11:58:15.675Z,53.11
2019-05-20T12:00:38.272Z,53.06
2019-05-20T12:03:06.384Z,53.01
2019-05-20T12:05:34.503Z,52.97
2019-05-20T12:08:02.512Z,52.99
2019-05-20T12:10:30.626Z,53.01
2019-05-20T12:12:58.644Z,53.01
2019-05-20T12:15:26.700Z,52.95
2019-05-20T12:17:54.708Z,52.88
2019-05-20T12:20:22.807Z,52.83
2019-05-20T12:22:50.924Z,52.92
2019-05-20T12:25:19.010Z,52.91
2019-05-20T12:27:47.159Z,52.88
2019-05-20T12:30:15.268Z,52.80
2019-05-20T12:32:43.338Z,52.75
2019-05-20T12:35:11.528Z,52.72
2019-05-20T12:37:39.602Z,52.74
2019-05-20T12:40:08.520Z,52.74
2019-05-20T12:42:36.936Z,52.69
2019-05-20T12:45:05.383Z,52.65
2019-05-20T12:47:33.516Z,52.63
2019-05-20T12:50:01.746Z,52.64
2019-05-20T12:52:29.787Z,52.66
2019-05-20T12:55:08.021Z,52.64
2019-05-20T12:57:27.793Z,52.62
2019-05-20T12:59:55.817Z,52.60
2019-05-20T13:02:23.880Z,52.57
2019-05-20T13:04:51.965Z,52.56
2019-05-20T13:07:20.019Z,52.54
2019-05-20T13:09:48.175Z,52.51
2019-05-20T13:12:16.239Z,52.52
2019-05-20T13:14:44.423Z,52.53
2019-05-20T13:17:12.512Z,52.54
2019-05-20T13:19:40.607Z,52.56
2019-05-20T13:22:08.678Z,52.58
2019-05-20T13:24:36.675Z,52.54
2019-05-20T13:27:04.748Z,52.50
2019-05-20T13:29:32.844Z,52.49
2019-05-20T13:32:00.973Z,52.47
2019-05-20T13:34:29.135Z,52.47
2019-05-20T13:36:57.294Z,52.42
2019-05-20T13:39:25.329Z,52.39
2019-05-20T13:41:53.376Z,52.40
2019-05-20T13:44:21.414Z,52.38
2019-05-20T13:46:50.136Z,52.38
2019-05-20T13:49:18.208Z,52.41
2019-05-20T13:51:46.283Z,52.40
2019-05-20T13:54:14.279Z,52.36
2019-05-20T13:56:42.480Z,52.33
2019-05-20T13:59:10.572Z,52.36
2019-05-20T14:01:38.538Z,52.40
2019-05-20T14:04:06.615Z,52.39
2019-05-20T14:06:34.663Z,52.38
2019-05-20T14:09:07.504Z,52.36
2019-05-20T14:11:35.025Z,52.39
2019-05-20T14:14:03.146Z,52.36
2019-05-20T14:16:31.139Z,52.36
2019-05-20T14:18:59.155Z,52.33
2019-05-20T14:21:27.125Z,52.31
2019-05-20T14:23:55.126Z,52.28
2019-05-20T14:26:23.098Z,52.25
2019-05-20T14:28:51.262Z,52.18
2019-05-20T14:31:19.239Z,52.17
2019-05-20T14:33:47.233Z,52.15
2019-05-20T14:36:37.892Z,52.10
2019-05-20T14:38:44.998Z,52.10
2019-05-20T14:41:21.494Z,52.11
2019-05-20T14:43:43.379Z,52.10
2019-05-20T14:46:11.499Z,52.14
2019-05-20T14:48:39.464Z,52.20
2019-05-20T14:51:07.530Z,52.25
2019-05-20T14:53:35.666Z,52.30
2019-05-20T14:56:03.778Z,52.33
2019-05-20T14:58:31.955Z,52.39
2019-05-20T15:01:00.025Z,52.44
2019-05-20T15:03:30.043Z,52.50
2019-05-20T15:05:58.047Z,52.54
2019-05-20T15:08:26.026Z,52.57
2019-05-20T15:10:54.192Z,52.60
2019-05-20T15:13:22.446Z,52.66
2019-05-20T15:15:50.444Z,52.75
2019-05-20T15:18:18.879Z,52.85
2019-05-20T15:20:46.977Z,52.88
2019-05-20T15:23:15.200Z,52.85
2019-05-20T15:25:43.226Z,52.92
2019-05-20T15:28:11.267Z,53.04
2019-05-20T15:30:39.343Z,53.11
2019-05-20T15:33:07.407Z,53.14
2019-05-20T15:35:35.511Z,53.16
2019-05-20T15:38:03.604Z,53.19
2019-05-20T15:40:31.684Z,53.25
2019-05-20T15:42:59.664Z,53.31
2019-05-20T15:45:27.793Z,53.36
2019-05-20T15:47:55.880Z,53.40
2019-05-20T15:50:23.979Z,53.45
2019-05-20T15:52:52.117Z,53.49
2019-05-20T15:55:20.131Z,53.53
2019-05-20T15:57:48.212Z,53.55
2019-05-20T16:00:16.368Z,53.58
2019-05-20T16:02:44.396Z,53.61
2019-05-20T16:05:12.572Z,53.61
2019-05-20T16:07:40.559Z,53.62
2019-05-20T16:10:08.740Z,53.68
2019-05-20T16:12:36.709Z,53.73
2019-05-20T16:15:05.027Z,53.76
2019-05-20T16:17:33.154Z,53.81
2019-05-20T16:20:06.323Z,53.86
2019-05-20T16:22:32.671Z,53.91
2019-05-20T16:25:00.771Z,53.94
2019-05-20T16:27:32.640Z,53.99
2019-05-20T16:30:06.169Z,53.99
2019-05-20T16:32:28.349Z,54.01
2019-05-20T16:34:56.326Z,54.04
2019-05-20T16:37:24.427Z,54.08
2019-05-20T16:39:52.484Z,54.12
2019-05-20T16:42:20.646Z,54.16
2019-05-20T16:44:48.830Z,54.16
2019-05-20T16:47:16.859Z,54.21
2019-05-20T16:49:44.911Z,54.20
2019-05-20T16:52:12.920Z,54.18
2019-05-20T16:54:41.079Z,54.21
2019-05-20T16:57:09.240Z,54.22
2019-05-20T16:59:37.333Z,54.22
2019-05-20T17:02:05.298Z,54.27
2019-05-20T17:04:33.368Z,54.26
2019-05-20T17:07:01.448Z,54.30
2019-05-20T17:09:29.569Z,54.32
2019-05-20T17:11:57.517Z,54.32
2019-05-20T17:14:25.592Z,54.34
2019-05-20T17:16:53.612Z,54.38
2019-05-20T17:19:21.599Z,54.40
2019-05-20T17:21:49.615Z,54.43
2019-05-20T17:24:17.666Z,54.52
2019-05-20T17:26:45.878Z,54.56
2019-05-20T17:29:13.936Z,54.56
2019-05-20T17:31:42.020Z,54.60
2019-05-20T17:34:11.551Z,54.58
2019-05-20T17:36:39.654Z,54.58
2019-05-20T17:39:07.847Z,54.59
2019-05-20T17:41:36.025Z,54.59
2019-05-20T17:44:04.278Z,54.64
2019-05-20T17:46:32.234Z,54.65
2019-05-20T17:49:00.362Z,54.67
2019-05-20T17:51:28.483Z,54.69
2019-05-20T17:53:56.466Z,54.71
2019-05-20T17:56:24.472Z,54.72
2019-05-20T17:58:52.443Z,54.72
2019-05-20T18:01:20.515Z,54.75
2019-05-20T18:03:48.572Z,54.75
2019-05-20T18:06:16.661Z,54.76
2019-05-20T18:08:47.661Z,54.80
2019-05-20T18:11:18.975Z,54.82
2019-05-20T18:13:45.447Z,54.88
2019-05-20T18:16:13.523Z,54.86
2019-05-20T18:18:41.579Z,54.88
2019-05-20T18:21:09.550Z,54.88
2019-05-20T18:23:37.631Z,54.85
2019-05-20T18:26:05.631Z,54.86
2019-05-20T18:28:33.800Z,54.87
2019-05-20T18:31:01.849Z,54.92
2019-05-20T18:33:30.032Z,54.89
2019-05-20T18:35:58.083Z,54.89
2019-05-20T18:38:26.264Z,54.91
2019-05-20T18:40:54.318Z,54.89
2019-05-20T18:43:22.311Z,54.92
2019-05-20T18:45:50.389Z,55.03
2019-05-20T18:48:18.475Z,55.04
2019-05-20T18:50:46.608Z,55.10
2019-05-20T18:53:14.755Z,55.09
2019-05-20T18:55:42.732Z,55.14
2019-05-20T18:58:13.890Z,55.09
2019-05-20T19:00:41.878Z,55.06
2019-05-20T19:03:09.870Z,55.07
2019-05-20T19:05:37.853Z,55.07
2019-05-20T19:08:05.926Z,55.03
2019-05-20T19:10:33.883Z,55.04
2019-05-20T19:13:02.042Z,55.09
2019-05-20T19:15:30.151Z,55.16
2019-05-20T19:17:58.234Z,55.16
2019-05-20T19:20:26.201Z,55.20
2019-05-20T19:22:54.275Z,55.26
2019-05-20T19:25:35.468Z,55.30
2019-05-20T19:27:52.038Z,55.32
2019-05-20T19:30:20.015Z,55.40
2019-05-20T19:35:22.145Z,55.47
2019-05-20T19:37:50.270Z,55.44
2019-05-20T19:40:18.246Z,55.48
2019-05-20T19:42:46.332Z,55.55
2019-05-20T19:45:14.453Z,55.59
2019-05-20T19:47:42.542Z,55.58
2019-05-20T19:50:10.595Z,55.73
2019-05-20T19:52:38.627Z,55.64
2019-05-20T19:55:06.751Z,55.66
2019-05-20T19:57:34.846Z,55.65
2019-05-20T20:00:02.900Z,55.65
2019-05-20T20:02:30.955Z,55.60
2019-05-20T20:04:58.997Z,55.62
2019-05-20T20:07:28.774Z,55.65
2019-05-20T20:09:56.676Z,55.69
2019-05-20T20:12:24.832Z,55.71
2019-05-20T20:14:52.879Z,55.72
2019-05-20T20:17:20.936Z,55.74
2019-05-20T20:19:49.087Z,55.76
2019-05-20T20:22:17.056Z,55.79
2019-05-20T20:24:45.128Z,55.85
2019-05-20T20:27:13.111Z,55.82
2019-05-20T20:29:41.269Z,55.85
2019-05-20T20:32:09.242Z,55.91
2019-05-20T20:34:37.247Z,55.95
2019-05-20T20:37:05.224Z,55.96
2019-05-20T20:39:34.504Z,56.10
2019-05-20T20:42:02.788Z,56.22
2019-05-20T20:44:30.883Z,56.18
2019-05-20T20:46:58.944Z,56.16
2019-05-20T20:49:26.939Z,56.15
2019-05-20T20:51:55.005Z,56.15
2019-05-20T20:54:23.012Z,56.16
2019-05-20T20:56:50.998Z,56.13
2019-05-20T20:59:19.159Z,56.16
2019-05-20T21:01:47.118Z,56.15
2019-05-20T21:04:15.132Z,56.24
2019-05-20T21:06:43.259Z,56.26
2019-05-20T21:09:11.280Z,56.23
2019-05-20T21:11:39.260Z,56.24
2019-05-20T21:14:07.267Z,56.22
2019-05-20T21:16:35.243Z,56.23
2019-05-20T21:19:03.689Z,56.31
2019-05-20T21:21:35.491Z,56.30
2019-05-20T21:24:03.582Z,56.29
2019-05-20T21:26:31.702Z,56.32
2019-05-20T21:28:59.803Z,56.34
2019-05-20T21:31:27.791Z,56.33
2019-05-20T21:33:55.795Z,56.30
2019-05-20T21:36:23.953Z,56.30
2019-05-20T21:38:52.075Z,56.29
2019-05-20T21:41:21.044Z,56.28
2019-05-20T21:43:49.052Z,56.31
2019-05-20T21:46:18.583Z,56.33
2019-05-20T21:48:46.666Z,56.32
2019-05-20T21:51:14.821Z,56.42
2019-05-20T21:53:42.893Z,56.39
2019-05-20T21:56:10.955Z,56.35
2019-05-20T21:58:39.007Z,56.35
2019-05-20T22:01:07.252Z,56.35
2019-05-20T22:03:35.323Z,56.38
2019-05-20T22:06:03.453Z,56.40
2019-05-20T22:08:31.592Z,56.43
2019-05-20T22:10:59.732Z,56.42
2019-05-20T22:13:27.708Z,56.50
2019-05-20T22:15:55.991Z,56.49
2019-05-20T22:18:24.056Z,56.45
2019-05-20T22:20:52.215Z,56.52
2019-05-20T22:23:45.210Z,56.55
2019-05-20T22:26:13.254Z,56.54
2019-05-20T22:28:41.279Z,56.66
2019-05-20T22:31:09.232Z,56.89
2019-05-20T22:33:41.210Z,57.00
2019-05-20T22:36:06.949Z,57.04
2019-05-20T22:38:34.999Z,57.13
2019-05-20T22:41:03.006Z,57.12
2019-05-20T22:43:31.058Z,57.29
2019-05-20T22:45:59.085Z,57.17
2019-05-20T22:48:27.063Z,57.19
2019-05-20T22:50:55.062Z,57.13
2019-05-20T22:53:23.192Z,57.00
2019-05-20T22:55:51.265Z,56.95
2019-05-20T22:58:19.312Z,56.97
2019-05-20T23:00:47.387Z,57.04
2019-05-20T23:03:15.597Z,57.03
2019-05-20T23:05:43.757Z,57.09
2019-05-20T23:08:11.785Z,57.14
2019-05-20T23:10:39.855Z,57.21
2019-05-20T23:13:07.830Z,57.33
2019-05-20T23:15:35.830Z,57.38
2019-05-20T23:18:03.875Z,57.51
2019-05-20T23:20:31.872Z,57.49
2019-05-20T23:22:59.956Z,57.53
2019-05-20T23:25:28.028Z,57.61
2019-05-20T23:27:56.002Z,57.61
2019-05-20T23:30:24.016Z,57.53
2019-05-20T23:32:52.158Z,57.47
2019-05-20T23:35:20.280Z,57.38
2019-05-20T23:37:48.339Z,57.34
2019-05-20T23:40:16.338Z,57.30
2019-05-20T23:42:44.319Z,57.32
2019-05-20T23:45:12.340Z,57.38
2019-05-20T23:47:40.318Z,57.42
2019-05-20T23:50:08.318Z,57.49
2019-05-20T23:52:36.284Z,57.49
2019-05-20T23:55:04.495Z,57.43
2019-05-20T23:57:32.428Z,57.48
